sensor_id;sensor_type;location;lat;lon;timestamp;P1;durP1;ratioP1;P2;durP2;ratioP2
5085;SDS011;4715;51.660;7.082;2023-02-20T00:00:50;4.37;;;3.67;;
5085;SDS011;4715;51.660;7.082;2023-02-20T00:03:13;8.17;;;4.77;;
5085;SDS011;4715;51.660;7.082;2023-02-20T00:05:36;5.13;;;4.40;;
5085;SDS011;4715;51.660;7.082;2023-02-20T00:07:58;5.83;;;5.33;;
5085;SDS011;4715;51.660;7.082;2023-02-20T00:10:20;6.10;;;5.50;;
5085;SDS011;4715;51.660;7.082;2023-02-20T00:12:43;7.20;;;4.63;;
5085;SDS011;4715;51.660;7.082;2023-02-20T00:15:05;8.20;;;5.60;;
5085;SDS011;4715;51.660;7.082;2023-02-20T00:17:28;8.20;;;6.00;;
5085;SDS011;4715;51.660;7.082;2023-02-20T00:19:50;7.20;;;6.27;;
5085;SDS011;4715;51.660;7.082;2023-02-20T00:22:13;8.87;;;6.10;;
5085;SDS011;4715;51.660;7.082;2023-02-20T00:24:35;10.53;;;6.50;;
5085;SDS011;4715;51.660;7.082;2023-02-20T00:26:56;11.70;;;7.60;;
5085;SDS011;4715;51.660;7.082;2023-02-20T00:29:19;8.93;;;7.00;;
5085;SDS011;4715;51.660;7.082;2023-02-20T00:31:42;11.77;;;7.30;;
5085;SDS011;4715;51.660;7.082;2023-02-20T00:34:04;12.77;;;8.83;;
5085;SDS011;4715;51.660;7.082;2023-02-20T00:36:26;13.57;;;9.03;;
5085;SDS011;4715;51.660;7.082;2023-02-20T00:38:49;11.60;;;7.93;;
5085;SDS011;4715;51.660;7.082;2023-02-20T00:41:11;17.53;;;9.40;;
5085;SDS011;4715;51.660;7.082;2023-02-20T00:43:33;16.10;;;9.83;;
5085;SDS011;4715;51.660;7.082;2023-02-20T00:45:56;12.33;;;8.70;;
5085;SDS011;4715;51.660;7.082;2023-02-20T00:48:18;12.30;;;8.67;;
5085;SDS011;4715;51.660;7.082;2023-02-20T00:50:39;18.63;;;9.63;;
5085;SDS011;4715;51.660;7.082;2023-02-20T00:53:01;14.77;;;9.53;;
5085;SDS011;4715;51.660;7.082;2023-02-20T00:55:25;18.37;;;10.07;;
5085;SDS011;4715;51.660;7.082;2023-02-20T00:57:46;17.73;;;9.67;;
5085;SDS011;4715;51.660;7.082;2023-02-20T01:00:11;18.30;;;9.37;;
5085;SDS011;4715;51.660;7.082;2023-02-20T01:02:39;22.13;;;10.20;;
5085;SDS011;4715;51.660;7.082;2023-02-20T01:05:01;19.17;;;9.30;;
5085;SDS011;4715;51.660;7.082;2023-02-20T01:07:23;13.20;;;9.00;;
5085;SDS011;4715;51.660;7.082;2023-02-20T01:09:45;18.00;;;10.60;;
5085;SDS011;4715;51.660;7.082;2023-02-20T01:12:08;17.17;;;8.67;;
5085;SDS011;4715;51.660;7.082;2023-02-20T01:14:30;22.60;;;10.07;;
5085;SDS011;4715;51.660;7.082;2023-02-20T01:16:52;17.50;;;9.00;;
5085;SDS011;4715;51.660;7.082;2023-02-20T01:19:14;18.27;;;10.70;;
5085;SDS011;4715;51.660;7.082;2023-02-20T01:21:36;13.90;;;9.70;;
5085;SDS011;4715;51.660;7.082;2023-02-20T01:23:57;19.40;;;10.60;;
5085;SDS011;4715;51.660;7.082;2023-02-20T01:26:19;16.60;;;8.63;;
5085;SDS011;4715;51.660;7.082;2023-02-20T01:28:43;15.93;;;8.80;;
5085;SDS011;4715;51.660;7.082;2023-02-20T01:31:06;13.20;;;8.57;;
5085;SDS011;4715;51.660;7.082;2023-02-20T01:33:28;17.93;;;10.27;;
5085;SDS011;4715;51.660;7.082;2023-02-20T01:35:50;15.53;;;9.67;;
5085;SDS011;4715;51.660;7.082;2023-02-20T01:38:11;13.47;;;9.17;;
5085;SDS011;4715;51.660;7.082;2023-02-20T01:40:33;13.57;;;9.23;;
5085;SDS011;4715;51.660;7.082;2023-02-20T01:42:55;15.43;;;9.00;;
5085;SDS011;4715;51.660;7.082;2023-02-20T01:45:24;20.37;;;9.83;;
5085;SDS011;4715;51.660;7.082;2023-02-20T01:47:50;15.67;;;8.77;;
5085;SDS011;4715;51.660;7.082;2023-02-20T01:50:14;15.77;;;9.60;;
5085;SDS011;4715;51.660;7.082;2023-02-20T01:52:38;15.33;;;9.10;;
5085;SDS011;4715;51.660;7.082;2023-02-20T01:55:04;13.37;;;9.23;;
5085;SDS011;4715;51.660;7.082;2023-02-20T01:57:29;12.43;;;9.17;;
5085;SDS011;4715;51.660;7.082;2023-02-20T01:59:54;15.67;;;9.40;;
5085;SDS011;4715;51.660;7.082;2023-02-20T02:02:21;13.73;;;9.00;;
5085;SDS011;4715;51.660;7.082;2023-02-20T02:04:44;13.50;;;7.87;;
5085;SDS011;4715;51.660;7.082;2023-02-20T02:07:08;14.50;;;8.50;;
5085;SDS011;4715;51.660;7.082;2023-02-20T02:09:36;17.10;;;9.43;;
5085;SDS011;4715;51.660;7.082;2023-02-20T02:12:02;12.17;;;7.30;;
5085;SDS011;4715;51.660;7.082;2023-02-20T02:14:24;12.33;;;8.97;;
5085;SDS011;4715;51.660;7.082;2023-02-20T02:16:50;13.17;;;9.03;;
5085;SDS011;4715;51.660;7.082;2023-02-20T02:19:27;17.33;;;10.50;;
5085;SDS011;4715;51.660;7.082;2023-02-20T02:22:19;18.93;;;9.23;;
5085;SDS011;4715;51.660;7.082;2023-02-20T02:25:12;12.63;;;9.57;;
5085;SDS011;4715;51.660;7.082;2023-02-20T02:34:03;21.00;;;11.60;;
5085;SDS011;4715;51.660;7.082;2023-02-20T02:36:54;15.17;;;10.87;;
5085;SDS011;4715;51.660;7.082;2023-02-20T02:39:24;23.57;;;11.07;;
5085;SDS011;4715;51.660;7.082;2023-02-20T02:41:55;17.30;;;10.90;;
5085;SDS011;4715;51.660;7.082;2023-02-20T02:44:25;23.17;;;12.27;;
5085;SDS011;4715;51.660;7.082;2023-02-20T02:46:53;16.97;;;10.33;;
5085;SDS011;4715;51.660;7.082;2023-02-20T02:49:20;18.07;;;11.07;;
5085;SDS011;4715;51.660;7.082;2023-02-20T02:51:46;23.40;;;12.63;;
5085;SDS011;4715;51.660;7.082;2023-02-20T02:54:11;20.60;;;10.70;;
5085;SDS011;4715;51.660;7.082;2023-02-20T02:56:34;23.50;;;11.60;;
5085;SDS011;4715;51.660;7.082;2023-02-20T02:58:57;22.00;;;10.70;;
5085;SDS011;4715;51.660;7.082;2023-02-20T03:01:18;19.17;;;10.30;;
5085;SDS011;4715;51.660;7.082;2023-02-20T03:03:42;17.53;;;11.80;;
5085;SDS011;4715;51.660;7.082;2023-02-20T03:06:06;24.23;;;10.73;;
5085;SDS011;4715;51.660;7.082;2023-02-20T03:08:32;19.00;;;10.30;;
5085;SDS011;4715;51.660;7.082;2023-02-20T03:11:02;19.03;;;11.40;;
5085;SDS011;4715;51.660;7.082;2023-02-20T03:13:27;21.10;;;12.73;;
5085;SDS011;4715;51.660;7.082;2023-02-20T03:16:09;20.03;;;11.87;;
5085;SDS011;4715;51.660;7.082;2023-02-20T03:18:35;21.73;;;11.17;;
5085;SDS011;4715;51.660;7.082;2023-02-20T03:21:02;23.10;;;11.83;;
5085;SDS011;4715;51.660;7.082;2023-02-20T03:23:31;20.40;;;11.63;;
5085;SDS011;4715;51.660;7.082;2023-02-20T03:25:57;23.77;;;12.43;;
5085;SDS011;4715;51.660;7.082;2023-02-20T03:28:23;20.20;;;11.07;;
5085;SDS011;4715;51.660;7.082;2023-02-20T03:30:49;20.40;;;10.97;;
5085;SDS011;4715;51.660;7.082;2023-02-20T03:33:16;24.07;;;12.23;;
5085;SDS011;4715;51.660;7.082;2023-02-20T03:35:58;19.23;;;11.07;;
5085;SDS011;4715;51.660;7.082;2023-02-20T03:38:41;21.50;;;10.10;;
5085;SDS011;4715;51.660;7.082;2023-02-20T03:41:25;22.03;;;11.70;;
5085;SDS011;4715;51.660;7.082;2023-02-20T03:44:08;23.40;;;11.77;;
5085;SDS011;4715;51.660;7.082;2023-02-20T03:46:32;21.57;;;12.47;;
5085;SDS011;4715;51.660;7.082;2023-02-20T03:48:57;17.07;;;10.33;;
5085;SDS011;4715;51.660;7.082;2023-02-20T03:51:22;24.63;;;12.50;;
5085;SDS011;4715;51.660;7.082;2023-02-20T03:53:44;14.97;;;10.50;;
5085;SDS011;4715;51.660;7.082;2023-02-20T03:56:08;22.23;;;11.30;;
5085;SDS011;4715;51.660;7.082;2023-02-20T03:58:36;24.13;;;12.20;;
5085;SDS011;4715;51.660;7.082;2023-02-20T04:01:04;17.53;;;10.90;;
5085;SDS011;4715;51.660;7.082;2023-02-20T04:03:30;23.60;;;12.37;;
5085;SDS011;4715;51.660;7.082;2023-02-20T04:05:56;17.30;;;11.43;;
5085;SDS011;4715;51.660;7.082;2023-02-20T04:08:21;20.23;;;11.17;;
5085;SDS011;4715;51.660;7.082;2023-02-20T04:10:52;22.50;;;12.70;;
5085;SDS011;4715;51.660;7.082;2023-02-20T04:13:17;23.73;;;11.60;;
5085;SDS011;4715;51.660;7.082;2023-02-20T04:15:40;24.47;;;12.20;;
5085;SDS011;4715;51.660;7.082;2023-02-20T04:18:07;25.50;;;12.50;;
5085;SDS011;4715;51.660;7.082;2023-02-20T04:20:31;20.00;;;12.77;;
5085;SDS011;4715;51.660;7.082;2023-02-20T04:22:54;22.87;;;12.17;;
5085;SDS011;4715;51.660;7.082;2023-02-20T04:25:24;20.93;;;11.73;;
5085;SDS011;4715;51.660;7.082;2023-02-20T04:27:54;23.10;;;10.73;;
5085;SDS011;4715;51.660;7.082;2023-02-20T04:30:16;23.77;;;11.97;;
5085;SDS011;4715;51.660;7.082;2023-02-20T04:32:39;24.63;;;12.90;;
5085;SDS011;4715;51.660;7.082;2023-02-20T04:35:02;28.43;;;14.00;;
5085;SDS011;4715;51.660;7.082;2023-02-20T04:37:24;18.43;;;11.97;;
5085;SDS011;4715;51.660;7.082;2023-02-20T04:39:46;21.00;;;11.33;;
5085;SDS011;4715;51.660;7.082;2023-02-20T04:42:08;24.60;;;11.50;;
5085;SDS011;4715;51.660;7.082;2023-02-20T04:44:30;20.27;;;11.00;;
5085;SDS011;4715;51.660;7.082;2023-02-20T04:46:53;20.80;;;9.37;;
5085;SDS011;4715;51.660;7.082;2023-02-20T04:49:15;19.27;;;12.50;;
5085;SDS011;4715;51.660;7.082;2023-02-20T04:51:38;19.53;;;11.47;;
5085;SDS011;4715;51.660;7.082;2023-02-20T04:53:59;26.97;;;11.57;;
5085;SDS011;4715;51.660;7.082;2023-02-20T04:56:21;16.87;;;10.20;;
5085;SDS011;4715;51.660;7.082;2023-02-20T04:58:45;21.90;;;10.57;;
5085;SDS011;4715;51.660;7.082;2023-02-20T05:01:08;18.90;;;10.93;;
5085;SDS011;4715;51.660;7.082;2023-02-20T05:03:30;17.63;;;10.73;;
5085;SDS011;4715;51.660;7.082;2023-02-20T05:05:52;20.33;;;10.63;;
5085;SDS011;4715;51.660;7.082;2023-02-20T05:08:15;18.60;;;10.30;;
5085;SDS011;4715;51.660;7.082;2023-02-20T05:10:37;25.07;;;11.63;;
5085;SDS011;4715;51.660;7.082;2023-02-20T05:12:58;21.10;;;11.90;;
5085;SDS011;4715;51.660;7.082;2023-02-20T05:15:21;23.90;;;12.20;;
5085;SDS011;4715;51.660;7.082;2023-02-20T05:17:43;22.77;;;11.83;;
5085;SDS011;4715;51.660;7.082;2023-02-20T05:20:05;19.80;;;12.30;;
5085;SDS011;4715;51.660;7.082;2023-02-20T05:22:27;20.90;;;12.50;;
5085;SDS011;4715;51.660;7.082;2023-02-20T05:24:50;16.40;;;11.30;;
5085;SDS011;4715;51.660;7.082;2023-02-20T05:27:12;26.40;;;12.60;;
5085;SDS011;4715;51.660;7.082;2023-02-20T05:29:35;28.80;;;14.10;;
5085;SDS011;4715;51.660;7.082;2023-02-20T05:31:57;22.70;;;14.10;;
5085;SDS011;4715;51.660;7.082;2023-02-20T05:34:19;29.30;;;14.83;;
5085;SDS011;4715;51.660;7.082;2023-02-20T05:36:41;22.87;;;14.80;;
5085;SDS011;4715;51.660;7.082;2023-02-20T05:39:03;21.60;;;14.70;;
5085;SDS011;4715;51.660;7.082;2023-02-20T05:41:26;24.40;;;13.37;;
5085;SDS011;4715;51.660;7.082;2023-02-20T05:43:48;23.90;;;14.67;;
5085;SDS011;4715;51.660;7.082;2023-02-20T05:46:10;22.40;;;13.77;;
5085;SDS011;4715;51.660;7.082;2023-02-20T05:48:32;20.80;;;13.83;;
5085;SDS011;4715;51.660;7.082;2023-02-20T05:50:54;25.47;;;16.23;;
5085;SDS011;4715;51.660;7.082;2023-02-20T05:53:16;26.47;;;15.83;;
5085;SDS011;4715;51.660;7.082;2023-02-20T05:55:37;29.10;;;15.90;;
5085;SDS011;4715;51.660;7.082;2023-02-20T05:58:01;19.73;;;14.37;;
5085;SDS011;4715;51.660;7.082;2023-02-20T06:00:22;30.00;;;14.83;;
5085;SDS011;4715;51.660;7.082;2023-02-20T06:02:46;26.20;;;15.60;;
5085;SDS011;4715;51.660;7.082;2023-02-20T06:05:08;21.00;;;15.00;;
5085;SDS011;4715;51.660;7.082;2023-02-20T06:07:29;27.67;;;12.67;;
5085;SDS011;4715;51.660;7.082;2023-02-20T06:09:51;24.63;;;14.70;;
5085;SDS011;4715;51.660;7.082;2023-02-20T06:12:13;26.30;;;14.90;;
5085;SDS011;4715;51.660;7.082;2023-02-20T06:14:37;25.90;;;13.73;;
5085;SDS011;4715;51.660;7.082;2023-02-20T06:16:58;29.00;;;15.63;;
5085;SDS011;4715;51.660;7.082;2023-02-20T06:19:21;25.67;;;14.17;;
5085;SDS011;4715;51.660;7.082;2023-02-20T06:21:44;18.43;;;11.87;;
5085;SDS011;4715;51.660;7.082;2023-02-20T06:24:06;24.67;;;12.87;;
5085;SDS011;4715;51.660;7.082;2023-02-20T06:26:28;21.80;;;13.70;;
5085;SDS011;4715;51.660;7.082;2023-02-20T06:28:49;16.00;;;11.93;;
5085;SDS011;4715;51.660;7.082;2023-02-20T06:31:18;24.33;;;12.80;;
5085;SDS011;4715;51.660;7.082;2023-02-20T06:33:41;25.63;;;13.40;;
5085;SDS011;4715;51.660;7.082;2023-02-20T06:36:03;19.33;;;12.70;;
5085;SDS011;4715;51.660;7.082;2023-02-20T06:38:25;24.10;;;12.70;;
5085;SDS011;4715;51.660;7.082;2023-02-20T06:40:48;22.30;;;12.57;;
5085;SDS011;4715;51.660;7.082;2023-02-20T06:43:10;25.67;;;13.40;;
5085;SDS011;4715;51.660;7.082;2023-02-20T06:45:32;18.37;;;12.10;;
5085;SDS011;4715;51.660;7.082;2023-02-20T06:47:55;19.27;;;11.70;;
5085;SDS011;4715;51.660;7.082;2023-02-20T06:50:17;21.13;;;13.60;;
5085;SDS011;4715;51.660;7.082;2023-02-20T06:52:39;21.73;;;14.60;;
5085;SDS011;4715;51.660;7.082;2023-02-20T06:55:01;34.03;;;15.30;;
5085;SDS011;4715;51.660;7.082;2023-02-20T06:57:23;24.80;;;13.30;;
5085;SDS011;4715;51.660;7.082;2023-02-20T06:59:45;24.93;;;14.53;;
5085;SDS011;4715;51.660;7.082;2023-02-20T07:02:09;24.00;;;14.03;;
5085;SDS011;4715;51.660;7.082;2023-02-20T07:04:33;30.63;;;16.40;;
5085;SDS011;4715;51.660;7.082;2023-02-20T07:06:55;25.90;;;14.77;;
5085;SDS011;4715;51.660;7.082;2023-02-20T07:09:19;24.83;;;15.20;;
5085;SDS011;4715;51.660;7.082;2023-02-20T07:11:41;28.20;;;15.80;;
5085;SDS011;4715;51.660;7.082;2023-02-20T07:14:03;25.83;;;14.03;;
5085;SDS011;4715;51.660;7.082;2023-02-20T07:16:25;24.37;;;15.00;;
5085;SDS011;4715;51.660;7.082;2023-02-20T07:18:47;31.13;;;14.87;;
5085;SDS011;4715;51.660;7.082;2023-02-20T07:21:10;24.73;;;14.40;;
5085;SDS011;4715;51.660;7.082;2023-02-20T07:23:32;29.93;;;14.50;;
5085;SDS011;4715;51.660;7.082;2023-02-20T07:25:54;26.20;;;15.70;;
5085;SDS011;4715;51.660;7.082;2023-02-20T07:28:16;22.20;;;14.33;;
5085;SDS011;4715;51.660;7.082;2023-02-20T07:30:38;25.77;;;15.27;;
5085;SDS011;4715;51.660;7.082;2023-02-20T07:33:00;20.50;;;12.60;;
5085;SDS011;4715;51.660;7.082;2023-02-20T07:35:22;24.00;;;14.10;;
5085;SDS011;4715;51.660;7.082;2023-02-20T07:37:45;28.33;;;15.13;;
5085;SDS011;4715;51.660;7.082;2023-02-20T07:40:10;21.37;;;13.20;;
5085;SDS011;4715;51.660;7.082;2023-02-20T07:42:33;23.10;;;13.57;;
5085;SDS011;4715;51.660;7.082;2023-02-20T07:44:54;23.43;;;12.43;;
5085;SDS011;4715;51.660;7.082;2023-02-20T07:47:16;25.87;;;13.10;;
5085;SDS011;4715;51.660;7.082;2023-02-20T07:49:38;32.03;;;14.70;;
5085;SDS011;4715;51.660;7.082;2023-02-20T07:52:00;26.30;;;13.20;;
5085;SDS011;4715;51.660;7.082;2023-02-20T07:54:23;24.33;;;13.57;;
5085;SDS011;4715;51.660;7.082;2023-02-20T07:56:46;23.33;;;13.30;;
5085;SDS011;4715;51.660;7.082;2023-02-20T07:59:08;18.67;;;12.53;;
5085;SDS011;4715;51.660;7.082;2023-02-20T08:01:30;20.17;;;13.37;;
5085;SDS011;4715;51.660;7.082;2023-02-20T08:03:51;23.07;;;12.73;;
5085;SDS011;4715;51.660;7.082;2023-02-20T08:06:15;25.33;;;13.50;;
5085;SDS011;4715;51.660;7.082;2023-02-20T08:08:37;20.40;;;13.23;;
5085;SDS011;4715;51.660;7.082;2023-02-20T08:11:00;17.63;;;12.47;;
5085;SDS011;4715;51.660;7.082;2023-02-20T08:13:22;23.53;;;14.20;;
5085;SDS011;4715;51.660;7.082;2023-02-20T08:15:44;24.37;;;13.10;;
5085;SDS011;4715;51.660;7.082;2023-02-20T08:18:07;21.20;;;14.40;;
5085;SDS011;4715;51.660;7.082;2023-02-20T08:20:28;23.67;;;13.00;;
5085;SDS011;4715;51.660;7.082;2023-02-20T08:22:51;20.80;;;12.67;;
5085;SDS011;4715;51.660;7.082;2023-02-20T08:25:14;24.80;;;12.93;;
5085;SDS011;4715;51.660;7.082;2023-02-20T08:27:40;20.17;;;12.77;;
5085;SDS011;4715;51.660;7.082;2023-02-20T08:30:03;25.10;;;12.47;;
5085;SDS011;4715;51.660;7.082;2023-02-20T08:32:25;23.50;;;12.10;;
5085;SDS011;4715;51.660;7.082;2023-02-20T08:34:47;23.87;;;13.53;;
5085;SDS011;4715;51.660;7.082;2023-02-20T08:37:09;26.47;;;14.00;;
5085;SDS011;4715;51.660;7.082;2023-02-20T08:39:31;21.20;;;11.97;;
5085;SDS011;4715;51.660;7.082;2023-02-20T08:41:54;28.33;;;12.70;;
5085;SDS011;4715;51.660;7.082;2023-02-20T08:44:17;26.30;;;13.00;;
5085;SDS011;4715;51.660;7.082;2023-02-20T08:46:44;22.17;;;13.90;;
5085;SDS011;4715;51.660;7.082;2023-02-20T08:49:10;26.17;;;14.43;;
5085;SDS011;4715;51.660;7.082;2023-02-20T08:51:31;27.10;;;13.80;;
5085;SDS011;4715;51.660;7.082;2023-02-20T08:53:53;22.10;;;14.33;;
5085;SDS011;4715;51.660;7.082;2023-02-20T08:56:16;21.57;;;12.30;;
5085;SDS011;4715;51.660;7.082;2023-02-20T08:58:39;16.87;;;11.93;;
5085;SDS011;4715;51.660;7.082;2023-02-20T09:01:02;24.70;;;12.50;;
5085;SDS011;4715;51.660;7.082;2023-02-20T09:03:24;19.23;;;11.33;;
5085;SDS011;4715;51.660;7.082;2023-02-20T09:05:46;29.77;;;13.93;;
5085;SDS011;4715;51.660;7.082;2023-02-20T09:08:08;19.73;;;13.53;;
5085;SDS011;4715;51.660;7.082;2023-02-20T09:10:30;23.03;;;12.37;;
5085;SDS011;4715;51.660;7.082;2023-02-20T09:12:52;20.73;;;11.63;;
5085;SDS011;4715;51.660;7.082;2023-02-20T09:15:14;19.53;;;11.07;;
5085;SDS011;4715;51.660;7.082;2023-02-20T09:17:40;19.47;;;13.30;;
5085;SDS011;4715;51.660;7.082;2023-02-20T09:20:02;20.30;;;12.33;;
5085;SDS011;4715;51.660;7.082;2023-02-20T09:22:28;27.30;;;11.77;;
5085;SDS011;4715;51.660;7.082;2023-02-20T09:24:51;24.70;;;11.90;;
5085;SDS011;4715;51.660;7.082;2023-02-20T09:27:13;25.37;;;12.67;;
5085;SDS011;4715;51.660;7.082;2023-02-20T09:29:35;23.43;;;11.60;;
5085;SDS011;4715;51.660;7.082;2023-02-20T09:32:00;19.63;;;12.50;;
5085;SDS011;4715;51.660;7.082;2023-02-20T09:34:23;16.03;;;11.50;;
5085;SDS011;4715;51.660;7.082;2023-02-20T09:36:45;25.60;;;12.40;;
5085;SDS011;4715;51.660;7.082;2023-02-20T09:39:07;20.17;;;13.03;;
5085;SDS011;4715;51.660;7.082;2023-02-20T09:41:40;25.57;;;13.60;;
5085;SDS011;4715;51.660;7.082;2023-02-20T09:44:11;16.60;;;12.07;;
5085;SDS011;4715;51.660;7.082;2023-02-20T09:46:36;20.33;;;13.57;;
5085;SDS011;4715;51.660;7.082;2023-02-20T09:49:01;21.73;;;12.50;;
5085;SDS011;4715;51.660;7.082;2023-02-20T09:51:29;22.50;;;12.67;;
5085;SDS011;4715;51.660;7.082;2023-02-20T09:53:53;17.07;;;11.77;;
5085;SDS011;4715;51.660;7.082;2023-02-20T09:56:24;23.40;;;13.17;;
5085;SDS011;4715;51.660;7.082;2023-02-20T09:58:49;28.47;;;13.53;;
5085;SDS011;4715;51.660;7.082;2023-02-20T10:01:18;18.47;;;12.47;;
5085;SDS011;4715;51.660;7.082;2023-02-20T10:03:48;27.07;;;12.13;;
5085;SDS011;4715;51.660;7.082;2023-02-20T10:06:15;22.70;;;12.57;;
5085;SDS011;4715;51.660;7.082;2023-02-20T10:08:40;17.20;;;12.60;;
5085;SDS011;4715;51.660;7.082;2023-02-20T10:11:02;17.63;;;12.03;;
5085;SDS011;4715;51.660;7.082;2023-02-20T10:13:35;19.43;;;12.40;;
5085;SDS011;4715;51.660;7.082;2023-02-20T10:16:07;30.70;;;13.03;;
5085;SDS011;4715;51.660;7.082;2023-02-20T10:18:42;20.10;;;13.10;;
5085;SDS011;4715;51.660;7.082;2023-02-20T10:21:11;22.03;;;12.80;;
5085;SDS011;4715;51.660;7.082;2023-02-20T10:23:43;23.43;;;12.70;;
5085;SDS011;4715;51.660;7.082;2023-02-20T10:26:09;26.23;;;14.27;;
5085;SDS011;4715;51.660;7.082;2023-02-20T10:28:35;18.63;;;12.50;;
5085;SDS011;4715;51.660;7.082;2023-02-20T10:30:58;20.13;;;12.30;;
5085;SDS011;4715;51.660;7.082;2023-02-20T10:33:27;21.57;;;13.73;;
5085;SDS011;4715;51.660;7.082;2023-02-20T10:35:54;16.40;;;11.50;;
5085;SDS011;4715;51.660;7.082;2023-02-20T10:38:20;17.50;;;11.40;;
5085;SDS011;4715;51.660;7.082;2023-02-20T10:40:47;19.27;;;12.43;;
5085;SDS011;4715;51.660;7.082;2023-02-20T10:43:15;23.17;;;13.70;;
5085;SDS011;4715;51.660;7.082;2023-02-20T10:45:44;20.20;;;12.93;;
5085;SDS011;4715;51.660;7.082;2023-02-20T10:48:12;23.33;;;12.87;;
5085;SDS011;4715;51.660;7.082;2023-02-20T10:50:37;28.13;;;13.30;;
5085;SDS011;4715;51.660;7.082;2023-02-20T10:53:06;23.20;;;15.03;;
5085;SDS011;4715;51.660;7.082;2023-02-20T10:55:38;23.10;;;14.50;;
5085;SDS011;4715;51.660;7.082;2023-02-20T10:58:07;29.80;;;15.20;;
5085;SDS011;4715;51.660;7.082;2023-02-20T11:00:35;29.70;;;15.70;;
5085;SDS011;4715;51.660;7.082;2023-02-20T11:03:02;27.67;;;16.90;;
5085;SDS011;4715;51.660;7.082;2023-02-20T11:05:27;22.83;;;14.17;;
5085;SDS011;4715;51.660;7.082;2023-02-20T11:07:54;24.73;;;15.10;;
5085;SDS011;4715;51.660;7.082;2023-02-20T11:10:17;28.57;;;15.67;;
5085;SDS011;4715;51.660;7.082;2023-02-20T11:12:50;22.77;;;15.60;;
5085;SDS011;4715;51.660;7.082;2023-02-20T11:15:16;28.73;;;16.70;;
5085;SDS011;4715;51.660;7.082;2023-02-20T11:17:41;24.30;;;15.80;;
5085;SDS011;4715;51.660;7.082;2023-02-20T11:20:05;25.73;;;15.47;;
5085;SDS011;4715;51.660;7.082;2023-02-20T11:22:54;30.90;;;14.17;;
5085;SDS011;4715;51.660;7.082;2023-02-20T11:25:17;26.03;;;14.20;;
5085;SDS011;4715;51.660;7.082;2023-02-20T11:27:40;22.73;;;11.90;;
5085;SDS011;4715;51.660;7.082;2023-02-20T11:30:03;20.20;;;11.37;;
5085;SDS011;4715;51.660;7.082;2023-02-20T11:32:42;16.53;;;11.37;;
5085;SDS011;4715;51.660;7.082;2023-02-20T11:37:49;21.93;;;11.40;;
5085;SDS011;4715;51.660;7.082;2023-02-20T11:40:32;16.80;;;11.23;;
5085;SDS011;4715;51.660;7.082;2023-02-20T11:42:54;19.33;;;12.13;;
5085;SDS011;4715;51.660;7.082;2023-02-20T11:45:29;17.73;;;10.30;;
5085;SDS011;4715;51.660;7.082;2023-02-20T11:48:06;15.60;;;10.37;;
5085;SDS011;4715;51.660;7.082;2023-02-20T11:50:35;19.30;;;10.80;;
5085;SDS011;4715;51.660;7.082;2023-02-20T11:53:00;23.80;;;11.90;;
5085;SDS011;4715;51.660;7.082;2023-02-20T11:55:27;14.03;;;9.93;;
5085;SDS011;4715;51.660;7.082;2023-02-20T11:57:49;16.70;;;10.00;;
5085;SDS011;4715;51.660;7.082;2023-02-20T12:00:12;16.67;;;11.83;;
5085;SDS011;4715;51.660;7.082;2023-02-20T12:02:46;17.00;;;10.40;;
5085;SDS011;4715;51.660;7.082;2023-02-20T12:05:14;22.13;;;10.57;;
5085;SDS011;4715;51.660;7.082;2023-02-20T12:07:38;17.90;;;10.80;;
5085;SDS011;4715;51.660;7.082;2023-02-20T12:10:04;29.50;;;12.57;;
5085;SDS011;4715;51.660;7.082;2023-02-20T12:12:41;19.07;;;9.60;;
5085;SDS011;4715;51.660;7.082;2023-02-20T12:15:05;29.33;;;11.90;;
5085;SDS011;4715;51.660;7.082;2023-02-20T12:17:33;22.70;;;11.37;;
5085;SDS011;4715;51.660;7.082;2023-02-20T12:20:02;20.20;;;10.27;;
5085;SDS011;4715;51.660;7.082;2023-02-20T12:22:31;19.70;;;10.50;;
5085;SDS011;4715;51.660;7.082;2023-02-20T12:24:59;17.20;;;10.70;;
5085;SDS011;4715;51.660;7.082;2023-02-20T12:30:23;19.33;;;11.70;;
5085;SDS011;4715;51.660;7.082;2023-02-20T12:32:58;14.90;;;9.80;;
5085;SDS011;4715;51.660;7.082;2023-02-20T12:35:34;13.50;;;10.30;;
5085;SDS011;4715;51.660;7.082;2023-02-20T12:40:57;19.87;;;11.07;;
5085;SDS011;4715;51.660;7.082;2023-02-20T12:43:39;20.63;;;11.30;;
5085;SDS011;4715;51.660;7.082;2023-02-20T12:46:07;27.77;;;11.87;;
5085;SDS011;4715;51.660;7.082;2023-02-20T12:48:36;19.23;;;10.30;;
5085;SDS011;4715;51.660;7.082;2023-02-20T12:51:09;21.80;;;11.10;;
5085;SDS011;4715;51.660;7.082;2023-02-20T12:53:42;18.20;;;10.40;;
5085;SDS011;4715;51.660;7.082;2023-02-20T12:56:17;18.73;;;11.60;;
5085;SDS011;4715;51.660;7.082;2023-02-20T12:58:59;19.77;;;10.70;;
5085;SDS011;4715;51.660;7.082;2023-02-20T13:01:27;18.10;;;11.13;;
5085;SDS011;4715;51.660;7.082;2023-02-20T13:03:51;15.77;;;10.30;;
5085;SDS011;4715;51.660;7.082;2023-02-20T13:06:24;22.73;;;9.70;;
5085;SDS011;4715;51.660;7.082;2023-02-20T13:08:54;23.00;;;11.27;;
5085;SDS011;4715;51.660;7.082;2023-02-20T13:11:23;18.43;;;10.10;;
5085;SDS011;4715;51.660;7.082;2023-02-20T13:13:52;23.90;;;11.43;;
5085;SDS011;4715;51.660;7.082;2023-02-20T13:16:23;17.90;;;9.90;;
5085;SDS011;4715;51.660;7.082;2023-02-20T13:18:53;22.40;;;11.00;;
5085;SDS011;4715;51.660;7.082;2023-02-20T13:21:20;29.03;;;13.40;;
5085;SDS011;4715;51.660;7.082;2023-02-20T13:23:45;26.13;;;11.27;;
5085;SDS011;4715;51.660;7.082;2023-02-20T13:29:11;25.20;;;11.67;;
5085;SDS011;4715;51.660;7.082;2023-02-20T13:31:44;15.37;;;11.00;;
5085;SDS011;4715;51.660;7.082;2023-02-20T13:34:27;16.27;;;11.00;;
5085;SDS011;4715;51.660;7.082;2023-02-20T13:36:55;23.63;;;12.00;;
5085;SDS011;4715;51.660;7.082;2023-02-20T13:42:03;20.00;;;12.70;;
5085;SDS011;4715;51.660;7.082;2023-02-20T13:44:46;24.93;;;12.50;;
5085;SDS011;4715;51.660;7.082;2023-02-20T13:49:58;19.50;;;12.40;;
5085;SDS011;4715;51.660;7.082;2023-02-20T13:55:12;19.97;;;12.53;;
5085;SDS011;4715;51.660;7.082;2023-02-20T13:57:44;25.43;;;13.10;;
5085;SDS011;4715;51.660;7.082;2023-02-20T14:00:15;21.07;;;12.87;;
5085;SDS011;4715;51.660;7.082;2023-02-20T14:02:46;19.17;;;13.17;;
5085;SDS011;4715;51.660;7.082;2023-02-20T14:05:17;22.03;;;12.13;;
5085;SDS011;4715;51.660;7.082;2023-02-20T14:07:42;23.03;;;13.13;;
5085;SDS011;4715;51.660;7.082;2023-02-20T14:10:06;21.73;;;12.37;;
5085;SDS011;4715;51.660;7.082;2023-02-20T14:12:39;15.33;;;11.37;;
5085;SDS011;4715;51.660;7.082;2023-02-20T14:15:04;26.77;;;14.23;;
5085;SDS011;4715;51.660;7.082;2023-02-20T14:17:28;23.00;;;14.00;;
5085;SDS011;4715;51.660;7.082;2023-02-20T14:19:55;28.80;;;14.40;;
5085;SDS011;4715;51.660;7.082;2023-02-20T14:22:23;22.67;;;14.50;;
5085;SDS011;4715;51.660;7.082;2023-02-20T14:24:59;28.00;;;14.47;;
5085;SDS011;4715;51.660;7.082;2023-02-20T14:27:26;28.90;;;15.30;;
5085;SDS011;4715;51.660;7.082;2023-02-20T14:30:02;21.17;;;13.57;;
5085;SDS011;4715;51.660;7.082;2023-02-20T14:32:25;23.67;;;14.57;;
5085;SDS011;4715;51.660;7.082;2023-02-20T14:34:50;23.60;;;14.07;;
5085;SDS011;4715;51.660;7.082;2023-02-20T14:37:18;20.07;;;14.37;;
5085;SDS011;4715;51.660;7.082;2023-02-20T14:39:48;25.47;;;15.70;;
5085;SDS011;4715;51.660;7.082;2023-02-20T14:42:18;27.87;;;15.17;;
5085;SDS011;4715;51.660;7.082;2023-02-20T14:44:45;25.27;;;15.33;;
5085;SDS011;4715;51.660;7.082;2023-02-20T14:47:11;22.53;;;15.77;;
5085;SDS011;4715;51.660;7.082;2023-02-20T14:49:35;28.10;;;16.67;;
5085;SDS011;4715;51.660;7.082;2023-02-20T14:52:06;23.90;;;15.03;;
5085;SDS011;4715;51.660;7.082;2023-02-20T14:54:33;32.20;;;18.00;;
5085;SDS011;4715;51.660;7.082;2023-02-20T14:56:57;28.77;;;15.47;;
5085;SDS011;4715;51.660;7.082;2023-02-20T14:59:29;27.63;;;15.43;;
5085;SDS011;4715;51.660;7.082;2023-02-20T15:01:54;27.60;;;16.13;;
5085;SDS011;4715;51.660;7.082;2023-02-20T15:04:18;26.00;;;15.53;;
5085;SDS011;4715;51.660;7.082;2023-02-20T15:06:43;29.63;;;16.53;;